Time;durP1;ratioP1;P1;durP2;ratioP2;P2;SDS_P1;SDS_P2;PMS_P1;PMS_P2;Temp;Humidity;BMP_temperature;BMP_pressure;BME280_temperature;BME280_humidity;BME280_pressure;Samples;Min_cycle;Max_cycle;Signal;HPM_P1;HPM_P2
2023/04/16 00:00:23;;;;;;;129.65;32.28;;;9.00;99.90;;;;;;5092261;28;20329;-63
2023/04/16 00:02:49;;;;;;;128.38;30.60;;;7.80;99.90;;;;;;5093046;28;20177;-62
2023/04/16 00:05:15;;;;;;;136.88;33.10;;;8.50;99.90;;;;;;5092376;28;20047;-62
2023/04/16 00:07:40;;;;;;;121.50;31.05;;;8.90;99.90;;;;;;5092723;28;20480;-64
2023/04/16 00:10:07;;;;;;;114.13;31.00;;;8.50;99.90;;;;;;5092706;28;20048;-62
2023/04/16 00:12:32;;;;;;;124.57;30.33;;;8.60;99.90;;;;;;5092626;28;20036;-61
2023/04/16 00:14:58;;;;;;;107.68;30.48;;;8.40;99.90;;;;;;5092365;28;20192;-63
2023/04/16 00:17:24;;;;;;;133.75;34.38;;;8.60;99.90;;;;;;5092616;28;20454;-63
2023/04/16 00:19:50;;;;;;;104.40;30.95;;;8.00;99.90;;;;;;5092758;28;20131;-62
2023/04/16 00:22:15;;;;;;;122.40;33.30;;;8.10;99.90;;;;;;5093007;28;20048;-63
2023/04/16 00:24:41;;;;;;;128.13;32.55;;;8.90;99.90;;;;;;5092630;28;20056;-64
2023/04/16 00:27:06;;;;;;;137.30;34.55;;;8.60;99.90;;;;;;5092927;28;20055;-63
2023/04/16 00:29:33;;;;;;;113.95;29.60;;;8.10;99.90;;;;;;5092626;28;20040;-62
2023/04/16 00:31:59;;;;;;;129.63;32.70;;;8.60;99.90;;;;;;5091634;28;20373;-62
2023/04/16 00:34:25;;;;;;;140.80;33.33;;;8.10;99.90;;;;;;5092591;28;20062;-62
2023/04/16 00:36:51;;;;;;;138.77;32.70;;;8.70;99.90;;;;;;5092743;28;20091;-63
2023/04/16 00:39:16;;;;;;;135.63;32.17;;;8.70;99.90;;;;;;5092731;28;20377;-63
2023/04/16 00:41:42;;;;;;;143.95;31.58;;;7.70;99.90;;;;;;5092346;28;20386;-64
2023/04/16 00:44:08;;;;;;;147.82;32.58;;;8.70;99.90;;;;;;5092361;28;20760;-63
2023/04/16 00:46:35;;;;;;;176.05;34.83;;;8.40;99.90;;;;;;5092686;28;20056;-64
2023/04/16 00:49:02;;;;;;;135.23;33.85;;;8.50;99.90;;;;;;5092651;28;20044;-62
2023/04/16 00:51:29;;;;;;;141.90;32.67;;;8.20;99.90;;;;;;5092494;28;20050;-63
2023/04/16 00:53:56;;;;;;;134.65;34.13;;;7.70;99.90;;;;;;5092449;28;20051;-62
2023/04/16 00:56:23;;;;;;;150.98;35.42;;;8.40;99.90;;;;;;5092382;28;20050;-62
2023/04/16 00:58:49;;;;;;;155.88;34.70;;;8.10;99.90;;;;;;5092126;28;20051;-63
2023/04/16 01:01:15;;;;;;;133.25;34.90;;;8.40;99.90;;;;;;5092402;28;20047;-62
2023/04/16 01:03:46;;;;;;;167.93;36.72;;;8.20;99.90;;;;;;5092259;28;20473;-64
2023/04/16 01:06:13;;;;;;;149.30;36.47;;;7.60;99.90;;;;;;5092394;28;20044;-63
2023/04/16 01:08:39;;;;;;;149.05;36.47;;;8.10;99.90;;;;;;5092016;28;20567;-64
2023/04/16 01:11:05;;;;;;;128.43;32.90;;;8.80;99.90;;;;;;5092326;28;20040;-63
2023/04/16 01:13:32;;;;;;;156.57;34.30;;;8.00;99.90;;;;;;5092241;28;20491;-63
2023/04/16 01:15:58;;;;;;;190.50;36.72;;;8.80;99.90;;;;;;5092434;28;20044;-62
2023/04/16 01:18:25;;;;;;;211.13;40.05;;;8.30;99.90;;;;;;5092247;28;20052;-64
2023/04/16 01:20:51;;;;;;;194.95;38.70;;;8.50;99.90;;;;;;5092101;28;20070;-63
2023/04/16 01:23:17;;;;;;;177.48;38.42;;;8.20;99.90;;;;;;5092130;28;20052;-62
2023/04/16 01:25:43;;;;;;;185.93;38.58;;;8.60;99.90;;;;;;5092081;28;20059;-62
2023/04/16 01:28:09;;;;;;;174.85;38.03;;;8.60;99.90;;;;;;5091866;28;20043;-63
2023/04/16 01:30:35;;;;;;;182.50;40.00;;;8.60;99.90;;;;;;5091988;28;20127;-63
2023/04/16 01:33:01;;;;;;;173.20;38.00;;;8.50;99.90;;;;;;5092124;28;20047;-63
2023/04/16 01:35:27;;;;;;;196.77;38.40;;;8.60;99.90;;;;;;5092162;28;20067;-63
2023/04/16 01:37:52;;;;;;;167.55;37.03;;;8.60;99.90;;;;;;5091949;28;20040;-63
2023/04/16 01:40:18;;;;;;;186.23;38.17;;;7.80;99.90;;;;;;5091655;28;20106;-63
2023/04/16 01:42:44;;;;;;;180.98;38.20;;;7.80;99.90;;;;;;5091669;28;20131;-65
2023/04/16 01:45:10;;;;;;;190.10;38.65;;;7.70;99.90;;;;;;5091952;28;20787;-63
2023/04/16 01:47:36;;;;;;;165.93;36.95;;;7.80;99.90;;;;;;5091871;28;20177;-63
2023/04/16 01:50:03;;;;;;;185.07;38.35;;;7.50;99.90;;;;;;5091878;28;20130;-63
2023/04/16 01:52:29;;;;;;;165.20;34.67;;;7.70;99.90;;;;;;5091882;28;20043;-62
2023/04/16 01:54:55;;;;;;;174.95;36.22;;;8.50;99.90;;;;;;5091814;28;20052;-62
2023/04/16 01:57:20;;;;;;;183.73;38.00;;;7.80;99.90;;;;;;5090587;28;20039;-63
2023/04/16 01:59:46;;;;;;;192.75;38.67;;;8.40;99.90;;;;;;5091729;28;20084;-66
2023/04/16 02:02:14;;;;;;;209.65;39.10;;;8.40;99.90;;;;;;5091711;28;20047;-63
2023/04/16 02:04:44;;;;;;;165.23;35.28;;;8.00;99.90;;;;;;5091678;28;20070;-63
2023/04/16 02:07:10;;;;;;;157.15;35.92;;;7.60;99.90;;;;;;5091682;28;20403;-66
2023/04/16 02:09:36;;;;;;;;;;;7.60;99.90;;;;;;5092159;28;20056;-63
2023/04/16 02:12:02;;;;;;;170.68;39.25;;;7.70;99.90;;;;;;5091322;28;19923;-65
2023/04/16 02:14:29;;;;;;;138.68;34.88;;;8.50;99.90;;;;;;5091587;28;20062;-63
2023/04/16 02:16:54;;;;;;;176.10;36.15;;;7.70;99.90;;;;;;5091567;28;20062;-63
2023/04/16 02:19:21;;;;;;;154.90;34.88;;;8.40;99.90;;;;;;5091594;28;20123;-64
2023/04/16 02:21:46;;;;;;;;;;;7.50;99.90;;;;;;5090679;28;20365;-63
2023/04/16 02:24:12;;;;;;;136.27;33.03;;;8.50;99.90;;;;;;5091510;28;19927;-63
2023/04/16 02:26:38;;;;;;;146.50;35.95;;;8.70;99.90;;;;;;5091167;28;20504;-64
2023/04/16 02:29:04;;;;;;;138.20;34.50;;;7.70;99.90;;;;;;5092497;28;20125;-63
2023/04/16 02:31:30;;;;;;;134.75;33.95;;;8.60;99.90;;;;;;5095169;28;20047;-63
2023/04/16 02:33:56;;;;;;;131.48;35.25;;;8.40;99.90;;;;;;5095043;28;20084;-63
2023/04/16 02:36:21;;;;;;;154.38;35.33;;;7.70;99.90;;;;;;5095091;28;20533;-63
2023/04/16 02:38:47;;;;;;;127.43;34.38;;;7.60;99.90;;;;;;5094978;28;20040;-62
2023/04/16 02:41:13;;;;;;;124.22;32.35;;;7.90;99.90;;;;;;5094678;28;20043;-63
2023/04/16 02:43:39;;;;;;;136.63;33.92;;;8.60;99.90;;;;;;5094905;28;20083;-62
2023/04/16 02:46:04;;;;;;;132.52;33.15;;;7.70;99.90;;;;;;5094540;28;20052;-62
2023/04/16 02:48:30;;;;;;;107.50;31.73;;;7.70;99.90;;;;;;5094816;28;20116;-63
2023/04/16 02:50:56;;;;;;;118.00;29.98;;;7.70;99.90;;;;;;5094747;28;20097;-63
2023/04/16 02:53:21;;;;;;;119.03;30.10;;;7.70;99.90;;;;;;5095096;28;20051;-63
2023/04/16 02:55:54;;;;;;;126.40;31.00;;;7.70;99.90;;;;;;5094496;28;20044;-63
2023/04/16 02:58:21;;;;;;;121.32;30.10;;;8.30;99.90;;;;;;5094636;28;20040;-64
2023/04/16 03:00:47;;;;;;;121.38;28.02;;;8.00;99.90;;;;;;5094509;28;20040;-63
2023/04/16 03:03:13;;;;;;;121.40;29.15;;;8.20;99.90;;;;;;5094521;28;20356;-63
2023/04/16 03:05:38;;;;;;;129.10;29.65;;;8.30;99.90;;;;;;5094576;28;20391;-62
2023/04/16 03:08:04;;;;;;;127.45;28.63;;;8.80;99.90;;;;;;5094712;28;20127;-63
2023/04/16 03:10:30;;;;;;;148.52;30.83;;;8.70;99.90;;;;;;5093075;28;20051;-63
2023/04/16 03:12:56;;;;;;;130.57;29.35;;;7.50;99.90;;;;;;5094392;28;20044;-63
2023/04/16 03:15:21;;;;;;;136.55;29.45;;;7.70;99.90;;;;;;5094409;28;20047;-63
2023/04/16 03:17:47;;;;;;;119.47;29.60;;;8.50;99.90;;;;;;5094288;28;20078;-63
2023/04/16 03:20:16;;;;;;;126.65;29.17;;;7.70;99.90;;;;;;5094154;28;20044;-63
2023/04/16 03:22:42;;;;;;;121.57;29.73;;;8.80;99.90;;;;;;5094075;28;20519;-64
2023/04/16 03:25:08;;;;;;;138.25;31.80;;;8.00;99.90;;;;;;5093466;28;20079;-62
2023/04/16 03:27:34;;;;;;;110.07;29.40;;;7.50;99.90;;;;;;5094083;28;20044;-62
2023/04/16 03:30:00;;;;;;;130.77;28.35;;;7.70;99.90;;;;;;5093995;28;20047;-62
2023/04/16 03:32:26;;;;;;;;;;;7.50;99.90;;;;;;5093014;28;20040;-63
2023/04/16 03:34:52;;;;;;;107.30;28.10;;;8.10;99.90;;;;;;5093998;28;20012;-65
2023/04/16 03:37:17;;;;;;;123.35;28.58;;;8.80;99.90;;;;;;5093875;28;20161;-63
2023/04/16 03:39:43;;;;;;;136.45;29.77;;;7.70;99.90;;;;;;5093273;28;20052;-63
2023/04/16 03:42:09;;;;;;;134.93;28.20;;;8.50;99.90;;;;;;5092927;28;20085;-63
2023/04/16 03:44:35;;;;;;;117.38;27.00;;;7.60;99.90;;;;;;5093706;28;20148;-63
2023/04/16 03:47:00;;;;;;;118.95;27.75;;;8.50;99.90;;;;;;5093640;28;20063;-62
2023/04/16 03:49:26;;;;;;;100.18;26.75;;;8.00;99.90;;;;;;5093624;28;20059;-63
2023/04/16 03:51:52;;;;;;;103.85;26.30;;;7.60;99.90;;;;;;5092346;28;20040;-63
2023/04/16 03:54:17;;;;;;;118.32;26.00;;;8.60;99.90;;;;;;5093250;28;20047;-63
2023/04/16 03:56:43;;;;;;;123.43;26.52;;;7.30;99.90;;;;;;5093541;28;20056;-64
2023/04/16 03:59:09;;;;;;;104.70;24.73;;;7.70;99.90;;;;;;5093411;28;20503;-63
2023/04/16 04:01:35;;;;;;;;;;;7.90;99.90;;;;;;5092482;28;20511;-63
2023/04/16 04:04:00;;;;;;;123.75;24.80;;;7.70;99.90;;;;;;5093311;28;19975;-62
2023/04/16 04:06:26;;;;;;;106.80;24.92;;;8.80;99.90;;;;;;5093324;28;20113;-63
2023/04/16 04:08:52;;;;;;;109.18;23.83;;;8.60;99.90;;;;;;5092578;28;20048;-63
2023/04/16 04:11:18;;;;;;;106.93;26.30;;;7.50;99.90;;;;;;5093125;28;20048;-63
2023/04/16 04:13:44;;;;;;;122.70;26.92;;;7.80;99.90;;;;;;5093270;28;20507;-63
2023/04/16 04:16:10;;;;;;;130.23;28.13;;;8.30;99.90;;;;;;5093190;28;20369;-62
2023/04/16 04:18:36;;;;;;;116.60;27.80;;;7.60;99.90;;;;;;5093116;28;20129;-62
2023/04/16 04:21:08;;;;;;;123.65;28.13;;;7.60;99.90;;;;;;5092007;28;20130;-63
2023/04/16 04:23:37;;;;;;;127.47;29.63;;;7.90;99.90;;;;;;5092677;28;20101;-63
2023/04/16 04:26:04;;;;;;;116.68;28.02;;;7.40;99.90;;;;;;5092729;28;20051;-62
2023/04/16 04:28:32;;;;;;;122.38;29.95;;;7.40;99.90;;;;;;5092590;28;20135;-64
2023/04/16 04:30:59;;;;;;;117.72;28.00;;;8.40;99.90;;;;;;5092458;28;20467;-63
2023/04/16 04:33:25;;;;;;;128.88;29.15;;;7.30;99.90;;;;;;5092596;28;20048;-62
2023/04/16 04:35:51;;;;;;;109.50;27.25;;;7.30;99.90;;;;;;5092569;28;20056;-63
2023/04/16 04:38:18;;;;;;;115.80;28.77;;;8.10;99.90;;;;;;5092754;28;20052;-62
2023/04/16 04:40:45;;;;;;;127.25;27.00;;;8.60;99.90;;;;;;5092586;28;20052;-62
2023/04/16 04:43:11;;;;;;;105.05;25.63;;;8.20;99.90;;;;;;5092516;28;20096;-63
2023/04/16 04:45:37;;;;;;;126.95;26.42;;;8.20;99.90;;;;;;5092662;28;20051;-63
2023/04/16 04:48:03;;;;;;;104.47;24.83;;;7.30;99.90;;;;;;5092567;28;20130;-62
2023/04/16 04:50:28;;;;;;;96.72;24.50;;;8.20;99.90;;;;;;5092319;28;20051;-63
2023/04/16 04:52:54;;;;;;;112.45;25.52;;;8.20;99.90;;;;;;5092221;28;20052;-62
2023/04/16 04:55:20;;;;;;;116.78;25.83;;;7.50;99.90;;;;;;5092483;28;20044;-62
2023/04/16 04:57:45;;;;;;;112.25;24.50;;;7.80;99.90;;;;;;5092499;28;20036;-62
2023/04/16 05:00:11;;;;;;;118.93;24.27;;;8.30;99.90;;;;;;5092208;28;20052;-63
2023/04/16 05:02:37;;;;;;;112.28;25.35;;;8.40;99.90;;;;;;5092633;28;20048;-63
2023/04/16 05:05:04;;;;;;;107.28;23.20;;;8.50;99.90;;;;;;5091814;28;20131;-62
2023/04/16 05:07:29;;;;;;;99.95;25.58;;;8.70;99.90;;;;;;5092316;28;20050;-62
2023/04/16 05:09:55;;;;;;;105.57;23.63;;;8.40;99.90;;;;;;5092609;28;20052;-63
2023/04/16 05:12:21;;;;;;;109.47;24.10;;;8.60;99.90;;;;;;5092188;28;20555;-62
2023/04/16 05:14:46;;;;;;;117.72;24.98;;;8.60;99.90;;;;;;5092173;28;20576;-62
2023/04/16 05:17:12;;;;;;;102.95;24.27;;;7.90;99.90;;;;;;5092238;28;20135;-63
2023/04/16 05:19:38;;;;;;;117.10;27.15;;;8.00;99.90;;;;;;5091935;28;20879;-63
2023/04/16 05:22:03;;;;;;;97.82;25.33;;;8.90;99.90;;;;;;5092155;28;20040;-63
2023/04/16 05:24:29;;;;;;;116.72;25.77;;;7.70;99.90;;;;;;5092031;28;20040;-62
2023/04/16 05:26:56;;;;;;;115.45;28.15;;;8.90;99.90;;;;;;5092176;28;20051;-63
2023/04/16 05:29:21;;;;;;;;;;;8.70;99.90;;;;;;5092580;28;20051;-63
2023/04/16 05:31:47;;;;;;;102.20;26.58;;;9.00;99.90;;;;;;5092031;28;19924;-65
2023/04/16 05:34:12;;;;;;;108.25;28.17;;;7.90;99.90;;;;;;5091572;28;20452;-63
2023/04/16 05:36:38;;;;;;;103.90;27.98;;;8.80;99.90;;;;;;5091970;28;20079;-63
2023/04/16 05:39:04;;;;;;;96.75;26.60;;;7.70;99.90;;;;;;5091972;28;20048;-63
2023/04/16 05:41:30;;;;;;;94.03;24.45;;;7.90;99.90;;;;;;5091961;28;20124;-63
2023/04/16 05:43:56;;;;;;;88.25;25.85;;;8.70;99.90;;;;;;5092267;28;20548;-63
2023/04/16 05:46:21;;;;;;;88.53;24.30;;;7.70;99.90;;;;;;5092017;28;20040;-65
2023/04/16 05:48:47;;;;;;;88.10;25.75;;;8.70;99.90;;;;;;5091775;28;20488;-65
2023/04/16 05:51:13;;;;;;;96.85;23.85;;;8.90;99.90;;;;;;5092119;28;20476;-64
2023/04/16 05:53:38;;;;;;;94.15;24.25;;;8.90;99.90;;;;;;5091894;28;20456;-63
2023/04/16 05:56:04;;;;;;;97.55;24.33;;;8.70;99.90;;;;;;5091896;28;20048;-62
2023/04/16 05:58:30;;;;;;;87.32;22.45;;;8.80;99.90;;;;;;5091779;28;20400;-64
2023/04/16 06:00:56;;;;;;;84.75;25.08;;;8.20;99.90;;;;;;5090540;28;20040;-64
2023/04/16 06:03:21;;;;;;;92.75;23.83;;;7.70;99.90;;;;;;5091481;28;20119;-64
2023/04/16 06:05:47;;;;;;;97.03;25.50;;;9.20;99.90;;;;;;5095823;28;20055;-65
2023/04/16 06:08:13;;;;;;;100.38;24.25;;;9.00;99.90;;;;;;5095726;28;20124;-63
2023/04/16 06:10:38;;;;;;;90.70;25.83;;;8.30;99.90;;;;;;5095634;28;20036;-63
2023/04/16 06:13:04;;;;;;;81.10;24.15;;;9.00;99.90;;;;;;5095501;28;20054;-64
2023/04/16 06:15:30;;;;;;;78.25;24.55;;;9.20;99.90;;;;;;5095497;28;20043;-63
2023/04/16 06:17:55;;;;;;;82.65;24.77;;;9.30;99.90;;;;;;5095463;28;20488;-63
2023/04/16 06:20:21;;;;;;;84.75;23.30;;;8.80;99.90;;;;;;5095152;28;20052;-65
2023/04/16 06:22:47;;;;;;;81.57;23.75;;;8.90;99.90;;;;;;5095738;28;20075;-64
2023/04/16 06:25:12;;;;;;;71.80;23.08;;;8.40;99.90;;;;;;5095415;28;20484;-64
2023/04/16 06:27:38;;;;;;;87.03;24.63;;;9.50;99.90;;;;;;5084573;28;20126;-70
2023/04/16 06:30:05;;;;;;;64.75;19.67;;;8.50;99.90;;;;;;5092251;28;20090;-64
2023/04/16 06:32:30;;;;;;;75.00;20.50;;;9.30;99.90;;;;;;5093927;27;20039;-64
2023/04/16 06:34:57;;;;;;;77.07;20.77;;;9.20;99.90;;;;;;5094405;28;20429;-66
2023/04/16 06:37:23;;;;;;;77.25;21.63;;;8.70;99.90;;;;;;5094845;28;20095;-66
2023/04/16 06:39:49;;;;;;;81.60;21.05;;;9.50;99.90;;;;;;5093067;28;20075;-63
2023/04/16 06:42:14;;;;;;;87.80;20.45;;;9.30;99.90;;;;;;5094135;28;20052;-64
2023/04/16 06:44:40;;;;;;;78.15;21.83;;;9.10;99.90;;;;;;5094330;28;20077;-63
2023/04/16 06:47:07;;;;;;;63.47;19.60;;;9.20;99.90;;;;;;5094317;28;20078;-63
2023/04/16 06:49:32;;;;;;;76.22;21.13;;;9.10;99.90;;;;;;5094052;28;20557;-65
2023/04/16 06:51:58;;;;;;;69.13;20.67;;;9.30;99.90;;;;;;5094195;28;20127;-64
2023/04/16 06:54:24;;;;;;;70.38;21.15;;;9.80;99.90;;;;;;5102504;28;20051;-71
2023/04/16 06:56:49;;;;;;;73.18;18.40;;;9.60;99.90;;;;;;5092005;28;20157;-64
2023/04/16 06:59:15;;;;;;;57.35;18.38;;;9.20;99.90;;;;;;5094258;28;20040;-64
2023/04/16 07:01:41;;;;;;;63.35;19.98;;;9.10;99.90;;;;;;5093120;28;20048;-64
2023/04/16 07:04:07;;;;;;;56.58;19.33;;;9.40;99.90;;;;;;5093922;28;20122;-64
2023/04/16 07:06:33;;;;;;;55.22;18.70;;;9.70;99.90;;;;;;5094143;28;20100;-64
2023/04/16 07:08:58;;;;;;;;;;;9.10;99.90;;;;;;5093803;28;20453;-66
2023/04/16 07:11:25;;;;;;;63.25;18.20;;;9.40;99.90;;;;;;5093530;28;19924;-64
2023/04/16 07:13:52;;;;;;;60.42;19.67;;;9.90;99.90;;;;;;5094005;28;20515;-64
2023/04/16 07:16:18;;;;;;;70.45;20.77;;;9.30;99.90;;;;;;5093914;28;20059;-64
2023/04/16 07:18:44;;;;;;;68.70;20.50;;;9.80;99.90;;;;;;5093749;28;20059;-64
2023/04/16 07:21:09;;;;;;;56.63;20.02;;;10.40;99.90;;;;;;5094187;28;20408;-66
2023/04/16 07:23:35;;;;;;;59.55;19.65;;;9.70;99.90;;;;;;5094167;28;20060;-63
2023/04/16 07:26:01;;;;;;;62.58;19.55;;;9.80;99.90;;;;;;5093364;28;20144;-64
2023/04/16 07:28:26;;;;;;;54.13;18.33;;;9.70;99.90;;;;;;5094347;28;20039;-64
2023/04/16 07:30:52;;;;;;;52.90;19.27;;;9.80;99.90;;;;;;5093876;28;20048;-63
2023/04/16 07:33:17;;;;;;;55.75;19.52;;;9.80;99.90;;;;;;5093425;28;20040;-63
2023/04/16 07:35:44;;;;;;;51.10;19.17;;;10.10;99.90;;;;;;5092365;28;20106;-63
2023/04/16 07:38:10;;;;;;;64.70;17.92;;;9.40;99.90;;;;;;5093790;28;20048;-64
2023/04/16 07:40:36;;;;;;;66.80;21.15;;;10.00;99.90;;;;;;5092952;28;20072;-64
2023/04/16 07:43:02;;;;;;;61.20;21.52;;;10.00;99.90;;;;;;5093654;28;20452;-63
2023/04/16 07:45:27;;;;;;;49.28;17.85;;;9.50;99.90;;;;;;5093425;28;20098;-64
2023/04/16 07:47:53;;;;;;;64.40;22.05;;;10.30;99.90;;;;;;5093226;28;20082;-64
2023/04/16 07:50:19;;;;;;;56.20;18.85;;;10.50;99.90;;;;;;5089225;28;20392;-67
2023/04/16 07:52:46;;;;;;;65.00;21.95;;;10.10;99.90;;;;;;5088373;28;20036;-65
2023/04/16 07:55:11;;;;;;;50.90;19.65;;;10.50;99.90;;;;;;5092482;28;20052;-63
2023/04/16 07:57:37;;;;;;;52.13;18.60;;;10.40;99.90;;;;;;5093074;28;20392;-64
2023/04/16 08:00:03;;;;;;;57.05;20.40;;;10.10;99.90;;;;;;5092806;28;20047;-64
2023/04/16 08:02:29;;;;;;;49.35;20.55;;;10.60;99.90;;;;;;5093194;28;20083;-64
2023/04/16 08:04:55;;;;;;;71.55;19.63;;;10.20;99.90;;;;;;5093085;28;20455;-62
2023/04/16 08:07:21;;;;;;;60.90;18.60;;;10.30;99.90;;;;;;5092941;28;20092;-72
2023/04/16 08:09:49;;;;;;;63.08;18.80;;;10.00;99.90;;;;;;5092147;28;20040;-65
2023/04/16 08:12:18;;;;;;;45.03;17.48;;;10.20;99.90;;;;;;5090091;28;20074;-64
2023/04/16 08:14:45;;;;;;;50.92;18.77;;;10.60;99.90;;;;;;5092653;28;20079;-69
2023/04/16 08:17:11;;;;;;;59.78;20.33;;;10.30;99.90;;;;;;5082345;28;20077;-63
2023/04/16 08:19:37;;;;;;;58.90;18.20;;;10.60;99.90;;;;;;5079355;28;20055;-63
2023/04/16 08:22:03;;;;;;;64.60;19.60;;;10.20;99.90;;;;;;5072649;28;20044;-66
2023/04/16 08:24:29;;;;;;;57.63;18.85;;;10.60;99.90;;;;;;5072511;28;20093;-63
2023/04/16 08:26:54;;;;;;;40.85;17.17;;;10.50;99.90;;;;;;5071911;28;20423;-64
2023/04/16 08:29:20;;;;;;;51.22;17.98;;;10.50;99.90;;;;;;5071623;28;20056;-64
2023/04/16 08:31:46;;;;;;;45.85;18.05;;;11.00;99.90;;;;;;5072066;28;20142;-62
2023/04/16 08:34:12;;;;;;;67.20;19.50;;;10.80;99.90;;;;;;5071518;28;20405;-63
2023/04/16 08:36:39;;;;;;;58.38;20.55;;;10.80;99.90;;;;;;5071500;28;20477;-64
2023/04/16 08:39:05;;;;;;;50.80;19.42;;;10.50;99.90;;;;;;5072073;28;20423;-63
2023/04/16 08:41:33;;;;;;;53.97;18.00;;;10.70;99.90;;;;;;5072419;28;20044;-63
2023/04/16 08:44:04;;;;;;;51.75;17.85;;;10.20;99.90;;;;;;5099950;28;20598;-64
2023/04/16 08:46:32;;;;;;;53.85;17.50;;;10.50;99.90;;;;;;5113325;28;20069;-65
2023/04/16 08:48:59;;;;;;;49.92;17.83;;;10.70;99.90;;;;;;5113078;28;20044;-63
2023/04/16 08:51:29;;;;;;;55.42;18.85;;;10.60;99.90;;;;;;5087954;28;20047;-65
2023/04/16 08:54:02;;;;;;;48.75;18.08;;;10.30;99.90;;;;;;5092245;28;20389;-65
2023/04/16 08:56:30;;;;;;;53.28;20.15;;;10.50;99.90;;;;;;5092099;28;20047;-64
2023/04/16 08:58:57;;;;;;;44.05;17.60;;;10.50;99.90;;;;;;5091439;28;20044;-64
2023/04/16 09:01:25;;;;;;;45.03;17.25;;;10.80;99.90;;;;;;5092167;28;20104;-63
2023/04/16 09:03:51;;;;;;;54.53;17.92;;;10.80;99.90;;;;;;5092189;28;20122;-63
2023/04/16 09:06:18;;;;;;;56.05;17.50;;;11.30;99.90;;;;;;5091152;28;20122;-63
2023/04/16 09:08:45;;;;;;;59.33;19.17;;;11.10;99.90;;;;;;5092114;28;20040;-63
2023/04/16 09:11:12;;;;;;;53.28;17.55;;;10.60;99.90;;;;;;5092024;28;20062;-65
2023/04/16 09:13:38;;;;;;;60.90;18.83;;;11.20;99.90;;;;;;5089996;28;20083;-63
2023/04/16 09:16:06;;;;;;;53.75;17.90;;;10.80;99.90;;;;;;5089218;28;20102;-63
2023/04/16 09:18:32;;;;;;;42.42;16.40;;;11.00;99.90;;;;;;5090941;28;20083;-64
2023/04/16 09:20:58;;;;;;;48.03;18.27;;;10.90;99.90;;;;;;5092088;28;20086;-63
2023/04/16 09:23:24;;;;;;;;;;;11.70;99.90;;;;;;5091302;28;20089;-64
2023/04/16 09:25:50;;;;;;;41.53;15.68;;;11.00;99.90;;;;;;5091857;28;20296;-63
2023/04/16 09:28:44;;;;;;;57.25;17.50;;;11.50;99.90;;;;;;5091554;28;20047;-63
2023/04/16 09:31:12;;;;;;;45.00;16.75;;;11.20;99.90;;;;;;5089813;28;20074;-65
2023/04/16 09:33:38;;;;;;;36.40;16.15;;;11.50;99.90;;;;;;5091351;28;20105;-63
2023/04/16 09:36:06;;;;;;;42.30;16.05;;;11.40;99.90;;;;;;5091578;28;20450;-64
2023/04/16 09:38:49;;;;;;;55.58;17.02;;;11.00;99.90;;;;;;5091800;28;20040;-64
2023/04/16 09:41:15;;;;;;;43.75;16.30;;;10.70;99.90;;;;;;5094157;28;20040;-64
2023/04/16 09:44:07;;;;;;;51.00;17.35;;;11.00;99.90;;;;;;5096159;28;20055;-63
2023/04/16 09:46:35;;;;;;;47.90;17.33;;;10.60;99.90;;;;;;5084221;28;20101;-65
2023/04/16 09:49:07;;;;;;;48.78;18.42;;;10.40;99.90;;;;;;5081008;28;20064;-64
2023/04/16 09:51:37;;;;;;;45.33;18.52;;;10.60;99.90;;;;;;5074847;28;20045;-67
2023/04/16 09:54:06;;;;;;;42.05;19.52;;;10.70;99.90;;;;;;5074405;28;20044;-65
2023/04/16 09:56:32;;;;;;;47.10;17.00;;;10.80;99.90;;;;;;5073831;28;20051;-64
2023/04/16 09:59:01;;;;;;;56.90;19.08;;;10.90;99.90;;;;;;5074563;28;20139;-63
2023/04/16 10:01:29;;;;;;;57.03;19.35;;;10.30;99.90;;;;;;5075361;28;20090;-65
2023/04/16 10:03:55;;;;;;;52.95;19.88;;;10.30;99.90;;;;;;5075449;28;20045;-64
2023/04/16 10:06:24;;;;;;;51.97;19.58;;;10.20;99.90;;;;;;5074799;28;20055;-67
2023/04/16 10:08:51;;;;;;;45.72;19.13;;;10.40;99.90;;;;;;5075206;28;20140;-66
2023/04/16 10:11:18;;;;;;;55.42;19.00;;;10.50;99.90;;;;;;5073547;28;20037;-63
2023/04/16 10:13:44;;;;;;;46.45;16.35;;;10.20;99.90;;;;;;5075200;28;20044;-63
2023/04/16 10:16:10;;;;;;;41.72;16.08;;;10.40;99.90;;;;;;5075284;28;20052;-63
2023/04/16 10:18:40;;;;;;;50.10;17.35;;;10.30;99.90;;;;;;5074256;28;20056;-65
2023/04/16 10:21:06;;;;;;;48.35;19.77;;;10.10;99.90;;;;;;5087620;28;20044;-64
2023/04/16 10:23:32;;;;;;;;;;;10.40;99.90;;;;;;5093887;28;20377;-65
2023/04/16 10:26:00;;;;;;;47.17;19.83;;;10.50;99.90;;;;;;5094552;28;19966;-63
2023/04/16 10:28:28;;;;;;;49.15;19.38;;;10.70;99.90;;;;;;5094773;28;20063;-69
2023/04/16 10:30:56;;;;;;;45.60;19.80;;;10.20;99.90;;;;;;5094830;28;20054;-65
2023/04/16 10:33:27;;;;;;;50.60;21.30;;;10.30;99.90;;;;;;5094445;28;20464;-65
2023/04/16 10:36:08;;;;;;;55.58;20.80;;;10.30;99.90;;;;;;5093894;28;20052;-70
2023/04/16 10:38:36;;;;;;;53.25;21.70;;;10.40;99.90;;;;;;5094260;28;20123;-64
2023/04/16 10:41:04;;;;;;;49.25;21.05;;;10.60;99.90;;;;;;5094551;28;20055;-64
2023/04/16 10:43:31;;;;;;;39.85;18.67;;;10.50;99.90;;;;;;5094503;28;20051;-65
2023/04/16 10:46:29;;;;;;;46.67;20.50;;;10.50;99.90;;;;;;5094285;28;20055;-63
2023/04/16 10:48:58;;;;;;;;;;;10.80;99.90;;;;;;5093734;28;20052;-65
2023/04/16 10:51:31;;;;;;;36.03;17.65;;;11.10;99.90;;;;;;5093023;28;19935;-65
2023/04/16 10:54:03;;;;;;;39.95;19.15;;;11.10;99.90;;;;;;5093202;28;20181;-64
2023/04/16 10:56:31;;;;;;;45.35;17.45;;;11.20;99.90;;;;;;5094061;28;20052;-64
2023/04/16 10:58:57;;;;;;;36.70;18.00;;;10.80;99.90;;;;;;5093541;28;20055;-64
2023/04/16 11:01:34;;;;;;;39.28;17.50;;;11.00;99.90;;;;;;5094203;28;20048;-64
2023/04/16 11:04:23;;;;;;;43.15;17.45;;;11.10;99.90;;;;;;5093561;28;20130;-65
2023/04/16 11:07:07;;;;;;;41.08;18.85;;;10.90;99.90;;;;;;5093869;28;20126;-64
2023/04/16 11:09:51;;;;;;;41.60;18.63;;;11.20;99.90;;;;;;5093687;28;20052;-64
2023/04/16 11:12:19;;;;;;;47.25;18.23;;;11.50;99.90;;;;;;5094015;28;20084;-64
2023/04/16 11:14:53;;;;;;;39.58;18.27;;;11.20;99.90;;;;;;5093968;28;20052;-63
2023/04/16 11:17:19;;;;;;;41.60;17.98;;;11.50;99.90;;;;;;5093829;28;20100;-65
2023/04/16 11:19:45;;;;;;;42.83;16.52;;;12.00;99.90;;;;;;5093663;28;20051;-64
2023/04/16 11:22:13;;;;;;;;;;;11.80;99.90;;;;;;5093740;28;20040;-64
2023/04/16 11:24:39;;;;;;;41.65;16.77;;;11.20;99.90;;;;;;5093850;28;19920;-63
2023/04/16 11:27:06;;;;;;;40.88;17.75;;;11.50;99.90;;;;;;5093639;28;20127;-64
2023/04/16 11:29:32;;;;;;;47.10;17.05;;;11.90;99.90;;;;;;5093890;28;20400;-63
2023/04/16 11:31:57;;;;;;;42.40;17.27;;;12.10;99.90;;;;;;5093471;28;20043;-64
2023/04/16 11:34:23;;;;;;;39.95;16.58;;;12.00;99.90;;;;;;5093329;28;20056;-63
2023/04/16 11:36:50;;;;;;;;;;;11.70;99.90;;;;;;5093597;28;20484;-64
2023/04/16 11:39:16;;;;;;;29.90;14.30;;;12.00;99.90;;;;;;5093762;28;19924;-65
2023/04/16 11:41:43;;;;;;;39.65;14.27;;;12.00;99.90;;;;;;5093461;28;20448;-65
2023/04/16 11:44:26;;;;;;;30.33;15.05;;;11.60;99.90;;;;;;5093536;28;20130;-63
2023/04/16 11:46:52;;;;;;;33.30;15.48;;;11.40;99.90;;;;;;5093176;28;20152;-66
2023/04/16 11:49:30;;;;;;;41.90;17.30;;;11.40;99.90;;;;;;5093461;28;20044;-63
2023/04/16 11:51:56;;;;;;;43.92;16.63;;;11.40;99.90;;;;;;5092881;28;20487;-64
2023/04/16 11:54:23;;;;;;;43.88;16.02;;;11.60;99.90;;;;;;5093077;28;20047;-66
2023/04/16 11:56:50;;;;;;;39.80;16.60;;;11.80;99.90;;;;;;5092910;28;20177;-64
2023/04/16 11:59:21;;;;;;;35.83;15.32;;;11.80;99.90;;;;;;5093054;28;20048;-65
2023/04/16 12:01:56;;;;;;;30.90;15.93;;;11.90;99.90;;;;;;5091792;28;20044;-64
2023/04/16 12:04:28;;;;;;;36.50;15.00;;;11.90;99.90;;;;;;5089434;28;20055;-66
2023/04/16 12:07:13;;;;;;;38.65;16.10;;;12.10;99.90;;;;;;5088762;28;20484;-65
2023/04/16 12:09:41;;;;;;;38.03;16.73;;;12.10;99.90;;;;;;5090780;28;20361;-64
2023/04/16 12:12:27;;;;;;;31.58;14.25;;;14.00;99.90;;;;;;5091732;28;20039;-67
2023/04/16 12:14:53;;;;;;;39.15;16.30;;;12.10;99.90;;;;;;5090015;28;20091;-70
2023/04/16 12:17:20;;;;;;;33.13;13.27;;;12.30;99.90;;;;;;5088474;28;20040;-67
2023/04/16 12:19:55;;;;;;;35.95;14.30;;;11.80;99.90;;;;;;5085309;28;20044;-64
2023/04/16 12:22:35;;;;;;;34.83;14.35;;;12.30;99.90;;;;;;5111423;28;20127;-66
2023/04/16 12:25:12;;;;;;;33.25;14.32;;;12.40;99.90;;;;;;5091851;28;20476;-64
2023/04/16 12:27:50;;;;;;;33.00;12.93;;;12.40;99.90;;;;;;5091671;28;20129;-66
2023/04/16 12:30:17;;;;;;;32.63;14.27;;;12.60;99.90;;;;;;5092228;28;20068;-63
2023/04/16 12:32:44;;;;;;;39.85;15.90;;;12.40;99.90;;;;;;5090761;28;20463;-64